BAW645 LGKR-EGLL
Flight info
| Callsign | BAW645 |
|---|---|
| Flight time | N/A |
| Altitude | 36000 |
| Route | OLGAT2B OLGAT DCT AIOSA DCT IPKIS DCT LABIN DCT RESIA DCT ELMUR L613 HOC DCT LUL DCT RLP DCT ROTSI DCT KOTUN DCT NINAL DCT ABNUR DCT DIMAL DCT ALESO ALESO1H |
| Aircraft | A21N/M-SDE3FGHIJ1LRWXYZ/SB1G1 |
Departure
| Time | 2026-04-27 14:35 |
|---|---|
| Airport | Corfu Ioannis Kapodistrias International Airport (LGKR) |
Arrival
| Time | N/A |
|---|---|
| Airport | London Heathrow Airport (EGLL) |
| Time | Latitude | Longitude | Altitude | Speed | Heading |
|---|---|---|---|---|---|
| 2026-04-27 13:23 | 39.60761 | 19.91334 | 24 ft | 0 kts | 79° |
| 2026-04-27 14:20 | 39.60758 | 19.91315 | 25 ft | 4 kts | 85° |
| 2026-04-27 14:20 | 39.60758 | 19.91280 | 26 ft | 4 kts | 99° |
| 2026-04-27 14:20 | 39.60766 | 19.91247 | 25 ft | 4 kts | 116° |
| 2026-04-27 14:21 | 39.60781 | 19.91218 | 27 ft | 4 kts | 136° |
| 2026-04-27 14:21 | 39.60802 | 19.91198 | 26 ft | 4 kts | 152° |
| 2026-04-27 14:21 | 39.60827 | 19.91184 | 26 ft | 4 kts | 165° |
| 2026-04-27 14:21 | 39.60853 | 19.91177 | 24 ft | 4 kts | 170° |
| 2026-04-27 14:22 | 39.60871 | 19.91173 | 24 ft | 0 kts | 166° |
| 2026-04-27 14:25 | 39.60867 | 19.91174 | 24 ft | 2 kts | 167° |
| 2026-04-27 14:25 | 39.60850 | 19.91178 | 24 ft | 3 kts | 169° |
| 2026-04-27 14:26 | 39.60823 | 19.91185 | 24 ft | 5 kts | 169° |
| 2026-04-27 14:26 | 39.60785 | 19.91195 | 24 ft | 6 kts | 169° |
| 2026-04-27 14:26 | 39.60746 | 19.91205 | 24 ft | 6 kts | 169° |
| 2026-04-27 14:26 | 39.60698 | 19.91217 | 25 ft | 8 kts | 169° |
| 2026-04-27 14:27 | 39.60638 | 19.91232 | 27 ft | 9 kts | 169° |
| 2026-04-27 14:27 | 39.60598 | 19.91217 | 24 ft | 0 kts | 230° |
| 2026-04-27 14:30 | 39.60590 | 19.91206 | 25 ft | 5 kts | 223° |
| 2026-04-27 14:31 | 39.60550 | 19.91172 | 24 ft | 12 kts | 207° |
| 2026-04-27 14:31 | 39.60427 | 19.91153 | 26 ft | 24 kts | 170° |
| 2026-04-27 14:31 | 39.60301 | 19.91185 | 26 ft | 31 kts | 169° |
| 2026-04-27 14:31 | 39.59957 | 19.91277 | 27 ft | 41 kts | 168° |
| 2026-04-27 14:32 | 39.59771 | 19.91324 | 30 ft | 41 kts | 169° |
| 2026-04-27 14:32 | 39.59486 | 19.91398 | 23 ft | 42 kts | 169° |
| 2026-04-27 14:32 | 39.59263 | 19.91455 | 24 ft | 21 kts | 168° |
| 2026-04-27 14:32 | 39.59179 | 19.91503 | 23 ft | 0 kts | 206° |
| 2026-04-27 14:33 | 39.59179 | 19.91482 | 23 ft | 5 kts | 310° |
| 2026-04-27 14:33 | 39.59208 | 19.91466 | 23 ft | 0 kts | 351° |
| 2026-04-27 14:34 | 39.59370 | 19.91428 | 25 ft | 64 kts | 348° |
| 2026-04-27 14:35 | 39.60061 | 19.91248 | 26 ft | 136 kts | 348° |
| 2026-04-27 14:35 | 39.61130 | 19.90981 | 316 ft | 163 kts | 349° |
| 2026-04-27 14:35 | 39.62293 | 19.90666 | 838 ft | 180 kts | 345° |
| 2026-04-27 14:35 | 39.63567 | 19.90295 | 1418 ft | 199 kts | 348° |
| 2026-04-27 14:36 | 39.64965 | 19.89860 | 1905 ft | 216 kts | 337° |
| 2026-04-27 14:36 | 39.66157 | 19.88665 | 2622 ft | 220 kts | 304° |
| 2026-04-27 14:36 | 39.66703 | 19.86794 | 3352 ft | 223 kts | 272° |
| 2026-04-27 14:36 | 39.66673 | 19.84820 | 4129 ft | 225 kts | 263° |
| 2026-04-27 14:37 | 39.66565 | 19.82779 | 5014 ft | 227 kts | 264° |
| 2026-04-27 14:37 | 39.66486 | 19.80729 | 5858 ft | 228 kts | 265° |
| 2026-04-27 14:37 | 39.66634 | 19.78665 | 6660 ft | 233 kts | 288° |
| 2026-04-27 14:37 | 39.67523 | 19.76816 | 7119 ft | 256 kts | 311° |
| 2026-04-27 14:38 | 39.68824 | 19.75078 | 7430 ft | 281 kts | 314° |
| 2026-04-27 14:38 | 39.70280 | 19.73210 | 7746 ft | 306 kts | 314° |
| 2026-04-27 14:38 | 39.71836 | 19.71175 | 8058 ft | 330 kts | 314° |
| 2026-04-27 14:38 | 39.73480 | 19.68992 | 8588 ft | 344 kts | 314° |
| 2026-04-27 14:39 | 39.75160 | 19.66742 | 9382 ft | 349 kts | 314° |
| 2026-04-27 14:39 | 39.76854 | 19.64454 | 10208 ft | 353 kts | 313° |
| 2026-04-27 14:39 | 39.78554 | 19.62144 | 10990 ft | 355 kts | 313° |
| 2026-04-27 14:39 | 39.80263 | 19.59813 | 11795 ft | 357 kts | 313° |
| 2026-04-27 14:40 | 39.81977 | 19.57474 | 12584 ft | 359 kts | 313° |
| 2026-04-27 14:40 | 39.83706 | 19.55115 | 13367 ft | 361 kts | 313° |
| 2026-04-27 14:40 | 39.85441 | 19.52749 | 14100 ft | 364 kts | 313° |
| 2026-04-27 14:40 | 39.87168 | 19.50413 | 14753 ft | 366 kts | 313° |
| 2026-04-27 14:41 | 39.88984 | 19.47985 | 15437 ft | 368 kts | 313° |
| 2026-04-27 14:41 | 39.90775 | 19.45588 | 16087 ft | 371 kts | 313° |
| 2026-04-27 14:41 | 39.92575 | 19.43171 | 16729 ft | 373 kts | 313° |
| 2026-04-27 14:41 | 39.94377 | 19.40746 | 17355 ft | 376 kts | 313° |
| 2026-04-27 14:42 | 39.96201 | 19.38292 | 17972 ft | 378 kts | 313° |
| 2026-04-27 14:42 | 39.98034 | 19.35817 | 18547 ft | 380 kts | 313° |
| 2026-04-27 14:42 | 39.99878 | 19.33328 | 19064 ft | 383 kts | 313° |
| 2026-04-27 14:42 | 40.01738 | 19.30824 | 19552 ft | 386 kts | 313° |
| 2026-04-27 14:43 | 40.03610 | 19.28297 | 20053 ft | 388 kts | 313° |
| 2026-04-27 14:43 | 40.05491 | 19.25747 | 20558 ft | 391 kts | 313° |
| 2026-04-27 14:43 | 40.07375 | 19.23176 | 21058 ft | 394 kts | 313° |
| 2026-04-27 14:43 | 40.09277 | 19.20580 | 21554 ft | 396 kts | 313° |
| 2026-04-27 14:44 | 40.11194 | 19.17975 | 22057 ft | 399 kts | 313° |
| 2026-04-27 14:44 | 40.13128 | 19.15358 | 22558 ft | 402 kts | 313° |
| 2026-04-27 14:44 | 40.15071 | 19.12725 | 23056 ft | 404 kts | 313° |
| 2026-04-27 14:44 | 40.17029 | 19.10063 | 23547 ft | 407 kts | 313° |
| 2026-04-27 14:45 | 40.18995 | 19.07393 | 23969 ft | 409 kts | 313° |
| 2026-04-27 14:45 | 40.20975 | 19.04704 | 24377 ft | 412 kts | 313° |
| 2026-04-27 14:45 | 40.22964 | 19.01988 | 24781 ft | 414 kts | 313° |
| 2026-04-27 14:45 | 40.25042 | 18.99375 | 25172 ft | 417 kts | 319° |
| 2026-04-27 14:46 | 40.27329 | 18.97006 | 25558 ft | 420 kts | 321° |
| 2026-04-27 14:46 | 40.29649 | 18.94671 | 25946 ft | 422 kts | 321° |
| 2026-04-27 14:46 | 40.31996 | 18.92353 | 26320 ft | 424 kts | 321° |
| 2026-04-27 14:46 | 40.34350 | 18.90013 | 26685 ft | 426 kts | 321° |
| 2026-04-27 14:47 | 40.36711 | 18.87644 | 27042 ft | 429 kts | 321° |
| 2026-04-27 14:47 | 40.39079 | 18.85253 | 27400 ft | 431 kts | 321° |
| 2026-04-27 14:47 | 40.41458 | 18.82845 | 27748 ft | 433 kts | 321° |
| 2026-04-27 14:47 | 40.43845 | 18.80418 | 28096 ft | 435 kts | 321° |
| 2026-04-27 14:48 | 40.46243 | 18.77987 | 28418 ft | 437 kts | 321° |
| 2026-04-27 14:48 | 40.51076 | 18.73074 | 29050 ft | 441 kts | 321° |
| 2026-04-27 14:48 | 40.53503 | 18.70612 | 29425 ft | 441 kts | 321° |
| 2026-04-27 14:49 | 40.55924 | 18.68140 | 29859 ft | 440 kts | 321° |
| 2026-04-27 14:49 | 40.58341 | 18.65678 | 30266 ft | 439 kts | 321° |
| 2026-04-27 14:49 | 40.60750 | 18.63223 | 30625 ft | 437 kts | 321° |
| 2026-04-27 14:49 | 40.63117 | 18.60803 | 30988 ft | 436 kts | 321° |
| 2026-04-27 14:50 | 40.65510 | 18.58360 | 31347 ft | 435 kts | 321° |
| 2026-04-27 14:50 | 40.67896 | 18.55926 | 31702 ft | 433 kts | 320° |
| 2026-04-27 14:50 | 40.70268 | 18.53494 | 32058 ft | 432 kts | 320° |
| 2026-04-27 14:50 | 40.72636 | 18.51067 | 32403 ft | 430 kts | 320° |
| 2026-04-27 14:51 | 40.74998 | 18.48645 | 32744 ft | 429 kts | 320° |
| 2026-04-27 14:51 | 40.77351 | 18.46232 | 33071 ft | 428 kts | 320° |
| 2026-04-27 14:51 | 40.79690 | 18.43822 | 33391 ft | 426 kts | 320° |
| 2026-04-27 14:51 | 40.81232 | 18.42233 | 33604 ft | 425 kts | 320° |
| 2026-04-27 14:52 | 40.84343 | 18.39030 | 33993 ft | 424 kts | 320° |
| 2026-04-27 14:52 | 40.86664 | 18.36635 | 34246 ft | 423 kts | 320° |
| 2026-04-27 14:52 | 40.88988 | 18.34242 | 34449 ft | 422 kts | 320° |
| 2026-04-27 14:52 | 40.91302 | 18.31855 | 34648 ft | 422 kts | 320° |
| 2026-04-27 14:53 | 40.93617 | 18.29465 | 34840 ft | 422 kts | 320° |
| 2026-04-27 14:53 | 40.95928 | 18.27074 | 35030 ft | 421 kts | 320° |
| 2026-04-27 14:53 | 40.98238 | 18.24687 | 35218 ft | 421 kts | 320° |
| 2026-04-27 14:53 | 41.00543 | 18.22291 | 35389 ft | 421 kts | 320° |
| 2026-04-27 14:54 | 41.02846 | 18.19896 | 35559 ft | 421 kts | 320° |
| 2026-04-27 14:54 | 41.05146 | 18.17507 | 35723 ft | 421 kts | 320° |
| 2026-04-27 14:54 | 41.07447 | 18.15123 | 35872 ft | 420 kts | 320° |
| 2026-04-27 14:54 | 41.09752 | 18.12726 | 36025 ft | 420 kts | 320° |
| 2026-04-27 14:55 | 41.14322 | 18.07960 | 36127 ft | 420 kts | 319° |
| 2026-04-27 14:55 | 41.18910 | 18.03177 | 36106 ft | 419 kts | 319° |
| 2026-04-27 14:56 | 41.23500 | 17.98389 | 36092 ft | 419 kts | 319° |
| 2026-04-27 14:56 | 41.28072 | 17.93609 | 36095 ft | 419 kts | 319° |
| 2026-04-27 14:57 | 41.32650 | 17.88805 | 36099 ft | 419 kts | 319° |
| 2026-04-27 14:57 | 41.37229 | 17.83998 | 36095 ft | 419 kts | 319° |
| 2026-04-27 14:58 | 41.41791 | 17.79173 | 36098 ft | 418 kts | 319° |
| 2026-04-27 14:58 | 41.46357 | 17.74368 | 36102 ft | 418 kts | 319° |
| 2026-04-27 14:59 | 41.50921 | 17.69545 | 36106 ft | 418 kts | 319° |
| 2026-04-27 14:59 | 41.55465 | 17.64725 | 36093 ft | 417 kts | 319° |
| 2026-04-27 15:00 | 41.60010 | 17.59906 | 36096 ft | 417 kts | 319° |
| 2026-04-27 15:00 | 41.64556 | 17.55073 | 36097 ft | 417 kts | 319° |
| 2026-04-27 15:01 | 41.69096 | 17.50244 | 36098 ft | 417 kts | 319° |